Česky Dansk Deutsch English Español Suomi Français Magyar Italiano Nederlands norsk Polski Português svenska Türkçe

 

Het Weer

Aleppo International Airport (Syria)

18:00, 2 september 2015 (GMT)

NWNNE
WE
SWSSE
Home            
Aleppo International Airport Gaziantep Iskenderun Lattakia Urfa Adana / Incirlik Adana / Sakirpasa Palmyra Malatya / Erhac Deir Ezzor Beyrouth Aeroport Damascus Int. Airport Diyarbakir Elazig Kayseri / Erkilet Ercan Larnaca Airport Athalassa Nevsehir Kamishli Galilee / Pina Sivas Batman

Om een weerknop op uw website of weblog te plaatsen, copieer onderstaande code en plak die in uw pagina. In het eerste vakje staat HTML-code, in het tweede vakje UBB-code.


Add to Google

Details

Wind speed:2 bf, 4 kn, 2.1 m/s, 4.6 miles/h, 7.4 km/h
Wind direction:E, 080°
Visibility:Greater than 10000 m, 10 km, 32800 ft, 6.2 miles
Clouds:CAVOC
Temperature:25°C, 77°F
Gefühlte Temperatur:26°C, 78°F
Dew-point:23°C, 73°F
Atmospheric pressure:1011 hPa, 758.3 mmHg, 29.85 inHg, 0.998 atm
Relative humidity:88.7 %
METAR:OSAP 021800Z 08004KT CAVOK 25/23 Q1011

Snelkoppelingen

Actuele weersinformatie van de hele wereld. Voeg locaties toe met het plus (+) symbool. Deze snelkoppelingen kunnen worden toegevoegd aan Google.

Lid van de Technetium groep

website free tracking
StatCounter NetStat W3C Validator

18-08-2022 09:41:42
astro.technetium.be money.technetium.be phote.technetium.be tafeltennistafel.technetium.be www.ligfiets.net